Time;durP1;ratioP1;P1;durP2;ratioP2;P2;SDS_P1;SDS_P2;PMS_P1;PMS_P2;Temp;Humidity;BMP_temperature;BMP_pressure;BME280_temperature;BME280_humidity;BME280_pressure;Samples;Min_cycle;Max_cycle;Signal;HPM_P1;HPM_P2
2022/01/04 00:01:19;;;;;;;;;;;7.40;99.90;;;;;;5036703;28;19952;-88
2022/01/04 00:03:48;;;;;;;;;;;7.50;99.90;;;;;;5037479;28;19921;-89
2022/01/04 00:06:15;;;;;;;;;;;7.60;99.90;;;;;;5037178;28;19960;-89
2022/01/04 00:08:42;;;;;;;;;;;7.60;99.90;;;;;;5037037;28;19928;-89
2022/01/04 00:11:15;;;;;;;;;;;7.80;99.90;;;;;;5036572;28;19921;-90
2022/01/04 00:13:42;;;;;;;;;;;7.90;99.90;;;;;;5037061;28;19921;-90
2022/01/04 00:16:10;;;;;;;;;;;7.60;99.90;;;;;;5036918;28;19921;-89
2022/01/04 00:18:39;;;;;;;;;;;7.50;99.90;;;;;;5036732;28;19927;-89
2022/01/04 00:21:06;;;;;;;;;;;7.50;99.90;;;;;;5036674;28;20375;-89
2022/01/04 00:23:33;;;;;;;;;;;7.50;99.90;;;;;;5036747;28;19928;-89
2022/01/04 00:26:00;;;;;;;;;;;7.60;99.90;;;;;;5036883;28;19928;-90
2022/01/04 00:28:27;;;;;;;;;;;8.00;99.90;;;;;;5036416;28;20418;-89
2022/01/04 00:30:54;;;;;;;;;;;7.60;99.90;;;;;;5036456;28;19956;-88
2022/01/04 00:33:21;;;;;;;;;;;7.60;99.90;;;;;;5036592;28;20374;-89
2022/01/04 00:35:49;;;;;;;;;;;7.60;99.90;;;;;;5036121;28;19928;-89
2022/01/04 00:38:16;;;;;;;;;;;7.80;99.90;;;;;;5036041;28;20367;-88
2022/01/04 00:40:43;;;;;;;;;;;7.60;99.90;;;;;;5036120;28;19996;-88
2022/01/04 00:43:09;;;;;;;;;;;7.60;99.90;;;;;;5035834;28;19922;-88
2022/01/04 00:45:37;;;;;;;;;;;7.60;99.90;;;;;;5035963;28;20334;-88
2022/01/04 00:50:50;;;;;;;;;;;7.50;99.90;;;;;;5035915;28;20288;-88
2022/01/04 00:53:17;;;;;;;;;;;7.40;99.90;;;;;;5035969;28;19921;-89
2022/01/04 00:55:43;;;;;;;;;;;7.40;99.90;;;;;;5035820;28;19921;-87
2022/01/04 00:58:10;;;;;;;;;;;7.40;99.90;;;;;;5036120;28;19929;-88
2022/01/04 01:00:37;;;;;;;;;;;7.30;99.90;;;;;;5035924;28;19921;-88
2022/01/04 01:03:04;;;;;;;;;;;7.30;99.90;;;;;;5035719;28;19948;-88
2022/01/04 01:05:32;;;;;;;;;;;7.30;99.90;;;;;;5035943;28;19921;-88
2022/01/04 01:08:00;;;;;;;;;;;7.40;99.90;;;;;;5035689;28;19928;-88
2022/01/04 01:10:42;;;;;;;;;;;7.40;99.90;;;;;;5036009;28;20429;-88
2022/01/04 01:13:09;;;;;;;;;;;7.20;99.90;;;;;;5038790;28;19975;-89
2022/01/04 01:15:38;;;;;;;;;;;7.20;99.90;;;;;;5039080;28;20319;-89
2022/01/04 01:18:05;;;;;;;;;;;7.10;99.90;;;;;;5038008;28;19956;-88
2022/01/04 01:20:31;;;;;;;;;;;7.10;99.90;;;;;;5036530;28;19963;-88
2022/01/04 01:23:00;;;;;;;;;;;7.10;99.90;;;;;;5036149;28;19974;-89
2022/01/04 01:25:26;;;;;;;;;;;7.00;99.90;;;;;;5036148;28;19975;-89
2022/01/04 01:27:53;;;;;;;;;;;7.00;99.90;;;;;;5035991;28;19975;-88
2022/01/04 01:30:21;;;;;;;;;;;6.30;99.90;;;;;;5035765;28;19921;-89
2022/01/04 01:32:48;;;;;;;;;;;7.00;99.90;;;;;;5036008;28;19925;-89
2022/01/04 01:35:15;;;;;;;;;;;7.00;99.90;;;;;;5035680;28;20364;-88
2022/01/04 01:37:42;;;;;;;;;;;6.90;99.90;;;;;;5035607;28;19971;-89
2022/01/04 01:40:11;;;;;;;;;;;7.00;99.90;;;;;;5035446;28;19921;-89
2022/01/04 01:42:40;;;;;;;;;;;7.00;99.90;;;;;;5035474;28;19921;-88
2022/01/04 01:45:09;;;;;;;;;;;7.00;99.90;;;;;;5035349;28;19921;-88
2022/01/04 01:47:37;;;;;;;;;;;7.00;99.90;;;;;;5035351;28;19921;-88
2022/01/04 01:50:04;;;;;;;;;;;7.00;99.90;;;;;;5035310;28;19921;-88
2022/01/04 01:52:31;;;;;;;;;;;6.90;99.90;;;;;;5035017;28;20341;-89
2022/01/04 01:54:57;;;;;;;;;;;6.90;99.90;;;;;;5035436;28;19975;-89
2022/01/04 01:57:26;;;;;;;;;;;7.10;99.90;;;;;;5035330;28;19921;-88
2022/01/04 01:59:52;;;;;;;;;;;6.60;99.90;;;;;;5035423;28;19924;-88
2022/01/04 02:02:19;;;;;;;;;;;6.10;99.90;;;;;;5035431;28;19921;-88
2022/01/04 02:04:46;;;;;;;;;;;6.20;99.90;;;;;;5034601;28;20378;-87
2022/01/04 02:07:13;;;;;;;;;;;5.30;99.90;;;;;;5034680;28;19925;-88
2022/01/04 02:09:44;;;;;;;;;;;5.70;99.90;;;;;;5034934;28;19921;-88
2022/01/04 02:12:12;;;;;;;;;;;5.60;99.90;;;;;;5035250;28;19921;-88
2022/01/04 02:14:47;;;;;;;;;;;5.50;99.90;;;;;;5035144;28;19921;-88
2022/01/04 02:17:14;;;;;;;;;;;5.60;99.90;;;;;;5034874;28;19921;-88
2022/01/04 02:19:42;;;;;;;;;;;5.40;99.90;;;;;;5034940;28;20368;-88
2022/01/04 02:22:09;;;;;;;;;;;5.60;99.90;;;;;;5035117;28;19927;-88
2022/01/04 02:24:36;;;;;;;;;;;5.50;99.90;;;;;;5035010;28;20346;-88
2022/01/04 02:27:03;;;;;;;;;;;5.30;99.90;;;;;;5034652;28;19929;-88
2022/01/04 02:29:29;;;;;;;;;;;5.50;99.90;;;;;;5035033;28;19925;-87
2022/01/04 02:31:56;;;;;;;;;;;5.50;99.90;;;;;;5034775;28;19974;-87
2022/01/04 02:34:23;;;;;;;;;;;6.10;99.90;;;;;;5034765;28;20376;-87
2022/01/04 02:36:51;;;;;;;;;;;5.30;99.90;;;;;;5034645;28;19920;-89
2022/01/04 02:39:18;;;;;;;;;;;5.70;99.90;;;;;;5034607;28;19974;-87
2022/01/04 02:41:45;;;;;;;;;;;5.20;99.90;;;;;;5034862;28;19921;-88
2022/01/04 02:44:12;;;;;;;;;;;5.20;99.90;;;;;;5034546;28;19943;-88
2022/01/04 02:46:38;;;;;;;;;;;4.90;99.90;;;;;;5034778;28;19921;-88
2022/01/04 02:49:05;;;;;;;;;;;5.00;99.90;;;;;;5034864;28;19975;-88
2022/01/04 02:51:32;;;;;;;;;;;4.60;99.90;;;;;;5034536;28;19921;-88
2022/01/04 02:54:00;;;;;;;;;;;5.10;99.90;;;;;;5034798;28;19921;-88
2022/01/04 02:56:27;;;;;;;;;;;4.60;99.90;;;;;;5034695;28;19928;-88
2022/01/04 02:59:01;;;;;;;;;;;4.60;99.90;;;;;;5034602;28;19925;-88
2022/01/04 03:01:27;;;;;;;;;;;4.50;99.90;;;;;;5034608;28;19927;-87
2022/01/04 03:03:54;;;;;;;;;;;6.10;99.90;;;;;;5035739;28;19979;-87
2022/01/04 03:06:21;;;;;;;;;;;4.50;99.90;;;;;;5036031;28;19944;-87
2022/01/04 03:08:48;;;;;;;;;;;4.60;99.90;;;;;;5036215;28;19921;-87
2022/01/04 03:11:16;;;;;;;;;;;4.20;99.90;;;;;;5034956;28;19921;-87
2022/01/04 03:13:43;;;;;;;;;;;4.20;99.90;;;;;;5034555;28;19988;-86
2022/01/04 03:16:10;;;;;;;;;;;4.10;99.90;;;;;;5034747;28;19925;-87
2022/01/04 03:18:49;;;;;;;;;;;4.10;99.90;;;;;;5034472;28;19921;-87
2022/01/04 03:21:16;;;;;;;;;;;4.00;99.90;;;;;;5034389;28;19963;-87
2022/01/04 03:23:42;;;;;;;;;;;4.00;99.90;;;;;;5034141;28;19967;-87
2022/01/04 03:26:09;;;;;;;;;;;4.50;99.90;;;;;;5034197;28;19924;-87
2022/01/04 03:28:40;;;;;;;;;;;4.00;99.90;;;;;;5034220;28;20367;-87
2022/01/04 03:31:07;;;;;;;;;;;3.80;99.90;;;;;;5034009;28;19928;-87
2022/01/04 03:33:34;;;;;;;;;;;3.90;99.90;;;;;;5036464;28;19925;-87
2022/01/04 03:36:01;;;;;;;;;;;4.20;99.90;;;;;;5038060;28;19967;-87
2022/01/04 03:38:28;;;;;;;;;;;3.80;99.90;;;;;;5037535;28;19975;-87
2022/01/04 03:40:55;;;;;;;;;;;4.60;99.90;;;;;;5038060;28;19953;-87
2022/01/04 03:43:23;;;;;;;;;;;4.50;99.90;;;;;;5038060;28;19943;-88
2022/01/04 03:45:51;;;;;;;;;;;3.80;99.90;;;;;;5038024;28;20029;-87
2022/01/04 03:48:18;;;;;;;;;;;4.20;99.90;;;;;;5037932;28;19925;-88
2022/01/04 03:50:45;;;;;;;;;;;4.60;99.90;;;;;;5037621;28;20383;-87
2022/01/04 03:53:12;;;;;;;;;;;3.40;99.90;;;;;;5037019;28;20374;-87
2022/01/04 03:55:39;;;;;;;;;;;3.80;99.90;;;;;;5037444;28;19975;-87
2022/01/04 03:58:05;;;;;;;;;;;3.90;99.90;;;;;;5037395;28;19963;-88
2022/01/04 04:00:32;;;;;;;;;;;3.90;99.90;;;;;;5037861;28;19925;-88
2022/01/04 04:03:01;;;;;;;;;;;3.90;99.90;;;;;;5037545;28;19975;-88
2022/01/04 04:05:27;;;;;;;;;;;4.10;99.90;;;;;;5037770;28;19945;-89
2022/01/04 04:07:54;;;;;;;;;;;3.70;99.90;;;;;;5037510;28;19925;-88
2022/01/04 04:10:21;;;;;;;;;;;3.80;99.90;;;;;;5037734;28;19921;-88
2022/01/04 04:12:48;;;;;;;;;;;1.90;99.90;;;;;;5036401;28;20371;-88
2022/01/04 04:15:14;;;;;;;;;;;4.00;99.90;;;;;;5037445;28;20268;-88
2022/01/04 04:17:41;;;;;;;;;;;4.40;99.90;;;;;;5037318;28;19942;-88
2022/01/04 04:20:10;;;;;;;;;;;4.80;99.90;;;;;;5036921;28;19975;-87
2022/01/04 04:22:37;;;;;;;;;;;3.80;99.90;;;;;;5037074;28;19921;-88
2022/01/04 04:25:04;;;;;;;;;;;3.90;99.90;;;;;;5037397;28;19983;-88
2022/01/04 04:27:31;;;;;;;;;;;2.50;99.90;;;;;;5037310;28;19975;-88
2022/01/04 04:29:57;;;;;;;;;;;4.10;99.90;;;;;;5037220;28;19921;-88
2022/01/04 04:32:24;;;;;;;;;;;3.80;99.90;;;;;;5037191;28;19929;-88
2022/01/04 04:34:51;;;;;;;;;;;3.80;99.90;;;;;;5037137;28;19925;-88
2022/01/04 04:37:19;;;;;;;;;;;4.10;99.90;;;;;;5037030;28;19921;-88
2022/01/04 04:39:46;;;;;;;;;;;4.20;99.90;;;;;;5036543;28;19921;-89
2022/01/04 04:42:13;;;;;;;;;;;4.10;99.90;;;;;;5036658;28;20395;-89
2022/01/04 04:44:40;;;;;;;;;;;3.80;99.90;;;;;;5035629;28;19920;-89
2022/01/04 04:47:08;;;;;;;;;;;3.90;99.90;;;;;;5038408;28;19921;-89
2022/01/04 04:49:35;;;;;;;;;;;3.80;99.90;;;;;;5038938;28;20323;-89
2022/01/04 04:52:02;;;;;;;;;;;3.60;99.90;;;;;;5038459;28;20342;-88
2022/01/04 04:54:30;;;;;;;;;;;2.50;99.90;;;;;;5038333;28;20433;-88
2022/01/04 04:56:57;;;;;;;;;;;4.00;99.90;;;;;;5039036;28;19925;-89
2022/01/04 04:59:24;;;;;;;;;;;3.90;99.90;;;;;;5041514;28;19921;-87
2022/01/04 05:01:50;;;;;;;;;;;4.00;99.90;;;;;;5042352;28;19925;-88
2022/01/04 05:04:19;;;;;;;;;;;4.00;99.90;;;;;;5043319;28;19952;-89
2022/01/04 05:06:46;;;;;;;;;;;3.80;99.90;;;;;;5039719;28;20375;-88
2022/01/04 05:09:13;;;;;;;;;;;3.90;99.90;;;;;;5038407;28;20035;-88
2022/01/04 05:11:41;;;;;;;;;;;3.90;99.90;;;;;;5038839;28;19944;-88
2022/01/04 05:14:08;;;;;;;;;;;4.20;99.90;;;;;;5038258;28;19975;-88
2022/01/04 05:16:38;;;;;;;;;;;4.00;99.90;;;;;;5038411;28;20403;-88
2022/01/04 05:19:05;;;;;;;;;;;3.90;99.90;;;;;;5038147;28;19929;-89
2022/01/04 05:21:31;;;;;;;;;;;4.20;99.90;;;;;;5037847;28;20437;-88
2022/01/04 05:23:58;;;;;;;;;;;4.00;99.90;;;;;;5037101;28;19921;-89
2022/01/04 05:26:25;;;;;;;;;;;4.10;99.90;;;;;;5036268;28;19935;-89
2022/01/04 05:28:53;;;;;;;;;;;4.00;99.90;;;;;;5036428;28;19920;-89
2022/01/04 05:31:20;;;;;;;;;;;3.90;99.90;;;;;;5036163;28;19975;-89
2022/01/04 05:33:47;;;;;;;;;;;4.40;99.90;;;;;;5035972;28;19925;-89
2022/01/04 05:36:14;;;;;;;;;;;3.40;99.90;;;;;;5035889;28;19944;-89
2022/01/04 05:38:41;;;;;;;;;;;3.80;99.90;;;;;;5035846;28;20342;-89
2022/01/04 05:41:08;;;;;;;;;;;3.50;99.90;;;;;;5035803;28;20020;-89
2022/01/04 05:43:34;;;;;;;;;;;3.50;99.90;;;;;;5035626;28;20363;-89
2022/01/04 05:46:03;;;;;;;;;;;3.40;99.90;;;;;;5036159;28;19963;-88
2022/01/04 05:48:29;;;;;;;;;;;3.40;99.90;;;;;;5035811;28;19979;-89
2022/01/04 05:50:56;;;;;;;;;;;3.30;99.90;;;;;;5035096;28;19921;-87
2022/01/04 05:53:23;;;;;;;;;;;3.30;99.90;;;;;;5035354;28;19944;-88
2022/01/04 05:55:50;;;;;;;;;;;3.50;99.90;;;;;;5035518;28;19921;-87
2022/01/04 05:58:17;;;;;;;;;;;2.60;99.90;;;;;;5035392;28;19928;-88
2022/01/04 06:00:43;;;;;;;;;;;3.70;99.90;;;;;;5035068;28;19921;-88
2022/01/04 06:03:12;;;;;;;;;;;3.20;99.90;;;;;;5035523;28;19921;-88
2022/01/04 06:05:38;;;;;;;;;;;3.20;99.90;;;;;;5035035;28;19925;-88
2022/01/04 06:08:05;;;;;;;;;;;3.10;99.90;;;;;;5035159;28;19975;-88
2022/01/04 06:10:38;;;;;;;;;;;3.10;99.90;;;;;;5035107;28;20374;-88
2022/01/04 06:15:49;;;;;;;;;;;1.90;99.90;;;;;;5033889;28;19928;-88
2022/01/04 06:18:17;;;;;;;;;;;3.00;99.90;;;;;;5034887;28;19925;-88
2022/01/04 06:20:44;;;;;;;;;;;3.50;99.90;;;;;;5034326;28;20273;-88
2022/01/04 06:23:11;;;;;;;;;;;3.30;99.90;;;;;;5034647;28;20378;-87
2022/01/04 06:25:38;;;;;;;;;;;3.10;99.90;;;;;;5034738;28;20350;-88
2022/01/04 06:28:05;;;;;;;;;;;3.20;99.90;;;;;;5035078;28;19928;-88
2022/01/04 06:30:32;;;;;;;;;;;3.00;99.90;;;;;;5035254;28;19921;-88
2022/01/04 06:32:59;;;;;;;;;;;3.30;99.90;;;;;;5034885;28;19928;-88
2022/01/04 06:35:29;;;;;;;;;;;3.90;99.90;;;;;;5034712;28;19925;-88
2022/01/04 06:37:56;;;;;;;;;;;2.90;99.90;;;;;;5034451;28;19928;-88
2022/01/04 06:40:23;;;;;;;;;;;3.30;99.90;;;;;;5034423;28;19921;-87
2022/01/04 06:42:50;;;;;;;;;;;2.90;99.90;;;;;;5034553;28;19974;-88
2022/01/04 06:45:17;;;;;;;;;;;3.00;99.90;;;;;;5035409;28;20253;-88
2022/01/04 06:47:43;;;;;;;;;;;2.90;99.90;;;;;;5034429;28;19921;-88
2022/01/04 06:50:14;;;;;;;;;;;2.90;99.90;;;;;;5034185;28;19928;-87
2022/01/04 06:52:42;;;;;;;;;;;1.40;99.90;;;;;;5034714;28;19972;-88
2022/01/04 06:55:09;;;;;;;;;;;2.80;99.90;;;;;;5034816;28;20295;-89
2022/01/04 06:57:36;;;;;;;;;;;2.80;99.90;;;;;;5036557;28;19921;-88
2022/01/04 07:00:03;;;;;;;;;;;3.20;99.90;;;;;;5036167;28;19951;-88
2022/01/04 07:02:30;;;;;;;;;;;3.20;99.90;;;;;;5035883;28;20330;-88
2022/01/04 07:04:57;;;;;;;;;;;3.10;99.90;;;;;;5034919;28;19983;-88
2022/01/04 07:07:24;;;;;;;;;;;3.40;99.90;;;;;;5034944;28;19921;-88
2022/01/04 07:09:52;;;;;;;;;;;3.00;99.90;;;;;;5037853;28;19965;-88
2022/01/04 07:12:22;;;;;;;;;;;3.20;99.90;;;;;;5038235;28;20453;-88
2022/01/04 07:14:49;;;;;;;;;;;3.00;99.90;;;;;;5037915;28;19921;-88
2022/01/04 07:17:16;;;;;;;;;;;3.00;99.90;;;;;;5038108;28;20051;-88
2022/01/04 07:19:43;;;;;;;;;;;3.30;99.90;;;;;;5037610;28;19925;-87
2022/01/04 07:22:10;;;;;;;;;;;3.30;99.90;;;;;;5037789;28;19944;-88
2022/01/04 07:24:37;;;;;;;;;;;2.20;99.90;;;;;;5036594;28;19928;-88
2022/01/04 07:27:05;;;;;;;;;;;2.60;99.90;;;;;;5036951;28;19920;-87
2022/01/04 07:29:32;;;;;;;;;;;2.50;99.90;;;;;;5036061;28;19999;-87
2022/01/04 07:31:59;;;;;;;;;;;2.70;99.90;;;;;;5022123;28;19921;-87
2022/01/04 07:34:26;;;;;;;;;;;2.60;99.90;;;;;;5022668;28;19956;-88
2022/01/04 07:36:52;;;;;;;;;;;2.50;99.90;;;;;;5026320;28;19925;-88
2022/01/04 07:39:26;;;;;;;;;;;2.40;99.90;;;;;;5022341;28;19921;-87
2022/01/04 07:41:54;;;;;;;;;;;2.90;99.90;;;;;;5034378;28;19921;-88
2022/01/04 07:44:22;;;;;;;;;;;2.30;99.90;;;;;;5016936;28;20416;-88
2022/01/04 07:46:49;;;;;;;;;;;2.80;99.90;;;;;;5022621;28;19921;-88
2022/01/04 07:49:16;;;;;;;;;;;2.20;99.90;;;;;;5035852;28;19929;-88
2022/01/04 07:51:43;;;;;;;;;;;2.40;99.90;;;;;;5029328;28;19929;-87
2022/01/04 07:54:09;;;;;;;;;;;2.50;99.90;;;;;;5023465;28;19928;-86
2022/01/04 07:56:36;;;;;;;;;;;2.40;99.90;;;;;;5036979;28;19928;-88
2022/01/04 07:59:03;;;;;;;;;;;2.20;99.90;;;;;;5037493;28;19921;-88
2022/01/04 08:01:32;;;;;;;;;;;2.30;99.90;;;;;;5032834;28;19972;-88
2022/01/04 08:04:00;;;;;;;;;;;2.10;99.90;;;;;;5028988;28;19927;-87
2022/01/04 08:06:27;;;;;;;;;;;2.30;99.90;;;;;;5034606;28;19924;-88
2022/01/04 08:08:53;;;;;;;;;;;2.10;99.90;;;;;;5035895;28;19928;-88
2022/01/04 08:11:20;;;;;;;;;;;2.00;99.90;;;;;;5034460;28;19921;-88
2022/01/04 08:13:47;;;;;;;;;;;2.00;99.90;;;;;;5036000;28;19924;-88
2022/01/04 08:16:15;;;;;;;;;;;2.70;99.90;;;;;;5033394;28;19921;-89
2022/01/04 08:18:43;;;;;;;;;;;3.40;99.90;;;;;;5033030;28;19929;-88
2022/01/04 08:21:10;;;;;;;;;;;2.10;99.90;;;;;;5030090;28;20283;-88
2022/01/04 08:23:37;;;;;;;;;;;3.10;99.90;;;;;;5031134;28;19921;-88
2022/01/04 08:26:03;;;;;;;;;;;2.20;99.90;;;;;;5025309;28;19967;-88
2022/01/04 08:28:31;;;;;;;;;;;1.50;99.90;;;;;;5031667;28;19992;-88
2022/01/04 08:30:57;;;;;;;;;;;1.90;99.90;;;;;;5024990;28;19975;-89
2022/01/04 08:33:24;;;;;;;;;;;1.90;99.90;;;;;;5024149;28;19922;-88
2022/01/04 08:35:53;;;;;;;;;;;2.40;99.90;;;;;;5023093;28;19921;-89
2022/01/04 08:38:21;;;;;;;;;;;2.30;99.90;;;;;;5032242;28;19929;-88
2022/01/04 08:40:48;;;;;;;;;;;3.40;99.90;;;;;;5026999;28;20276;-87
2022/01/04 08:43:16;;;;;;;;;;;5.40;99.90;;;;;;5032157;28;19928;-88
2022/01/04 08:48:30;;;;;;;;;;;2.10;99.90;;;;;;5030218;28;19940;-88
2022/01/04 08:50:58;;;;;;;;;;;2.00;99.90;;;;;;5025650;28;19925;-88
2022/01/04 08:53:25;;;;;;;;;;;2.00;99.90;;;;;;5026780;28;19967;-87
2022/01/04 08:55:53;;;;;;;;;;;3.20;99.90;;;;;;5027505;28;19929;-87
2022/01/04 08:58:23;;;;;;;;;;;1.90;99.90;;;;;;5016392;28;20067;-87
2022/01/04 09:00:50;;;;;;;;;;;1.80;99.90;;;;;;5023449;28;19933;-91
2022/01/04 09:03:17;;;;;;;;;;;2.50;99.90;;;;;;5041226;28;19951;-89
2022/01/04 09:05:44;;;;;;;;;;;1.70;99.90;;;;;;5028635;28;19929;-86
2022/01/04 09:08:13;;;;;;;;;;;1.90;99.90;;;;;;5024853;28;19928;-88
2022/01/04 09:10:39;;;;;;;;;;;2.20;99.90;;;;;;5026644;28;20326;-87
2022/01/04 09:13:11;;;;;;;;;;;1.80;99.90;;;;;;5025536;28;19975;-88
2022/01/04 09:21:08;;;;;;;;;;;1.80;99.90;;;;;;5015035;28;19928;-87
2022/01/04 09:23:37;;;;;;;;;;;3.10;99.90;;;;;;5017538;28;19987;-87
2022/01/04 09:26:04;;;;;;;;;;;1.50;99.90;;;;;;4998729;28;20007;-87
2022/01/04 09:28:31;;;;;;;;;;;2.00;99.90;;;;;;5012329;28;19956;-87
2022/01/04 09:30:58;;;;;;;;;;;2.00;99.90;;;;;;5013706;28;20272;-86
2022/01/04 09:33:25;;;;;;;;;;;2.20;99.90;;;;;;5018887;28;19925;-87
2022/01/04 09:35:52;;;;;;;;;;;1.90;99.90;;;;;;5022557;28;19928;-86
2022/01/04 09:38:21;;;;;;;;;;;3.50;99.90;;;;;;5012943;28;20427;-88
2022/01/04 09:40:50;;;;;;;;;;;2.10;99.90;;;;;;5020768;28;19971;-87
2022/01/04 09:43:20;;;;;;;;;;;2.00;99.90;;;;;;5023192;28;19928;-88
2022/01/04 09:45:51;;;;;;;;;;;1.90;99.90;;;;;;5025596;28;19925;-88
2022/01/04 09:48:20;;;;;;;;;;;1.90;99.90;;;;;;5015311;28;20032;-87
2022/01/04 09:50:53;;;;;;;;;;;2.40;99.90;;;;;;5018329;28;19936;-90
2022/01/04 09:53:26;;;;;;;;;;;2.10;99.90;;;;;;5014372;28;19921;-90
2022/01/04 09:56:02;;;;;;;;;;;3.40;99.90;;;;;;5006965;28;19929;-90
2022/01/04 09:58:30;;;;;;;;;;;2.20;99.90;;;;;;5021368;28;19925;-87
2022/01/04 10:01:00;;;;;;;;;;;2.20;99.90;;;;;;5023041;28;20433;-88
2022/01/04 10:03:41;;;;;;;;;;;2.20;99.90;;;;;;5025686;28;19971;-91
2022/01/04 10:06:21;;;;;;;;;;;2.60;99.90;;;;;;5029290;28;20024;-90
2022/01/04 10:08:56;;;;;;;;;;;2.80;99.90;;;;;;5019234;28;19929;-88
2022/01/04 10:11:42;;;;;;;;;;;2.40;99.90;;;;;;5022573;28;19929;-89
2022/01/04 10:14:35;;;;;;;;;;;2.70;99.90;;;;;;5027337;28;19949;-91
2022/01/04 10:17:06;;;;;;;;;;;2.50;99.90;;;;;;5025166;28;20020;-89
2022/01/04 10:19:37;;;;;;;;;;;2.90;99.90;;;;;;5021647;28;19971;-90
2022/01/04 10:22:22;;;;;;;;;;;0.60;99.90;;;;;;5024524;28;19993;-90
2022/01/04 10:24:51;;;;;;;;;;;1.40;99.90;;;;;;5018994;28;19967;-89
2022/01/04 10:27:23;;;;;;;;;;;3.10;99.90;;;;;;5021059;28;19929;-89
2022/01/04 10:30:07;;;;;;;;;;;2.80;99.90;;;;;;5024034;28;19929;-89
2022/01/04 10:32:43;;;;;;;;;;;2.80;99.90;;;;;;4972523;28;19989;-90
2022/01/04 10:35:10;;;;;;;;;;;3.00;99.90;;;;;;4946813;28;19928;-88
2022/01/04 10:37:39;;;;;;;;;;;3.30;99.90;;;;;;4942652;28;19958;-90
2022/01/04 10:40:07;;;;;;;;;;;2.70;99.90;;;;;;4944081;28;19925;-89
2022/01/04 10:42:35;;;;;;;;;;;2.90;99.90;;;;;;4940071;28;20673;-88
2022/01/04 10:45:17;;;;;;;;;;;3.60;99.90;;;;;;4969246;28;19921;-91
2022/01/04 10:47:44;;;;;;;;;;;3.10;99.90;;;;;;5023176;28;19925;-90
2022/01/04 10:50:11;;;;;;;;;;;3.20;99.90;;;;;;5023040;28;19952;-89
2022/01/04 10:52:40;;;;;;;;;;;3.10;99.90;;;;;;5019802;28;19921;-89
2022/01/04 10:55:13;;;;;;;;;;;2.60;99.90;;;;;;5012099;28;20392;-90
2022/01/04 10:57:55;;;;;;;;;;;3.60;99.90;;;;;;5016599;28;19925;-88
2022/01/04 11:00:24;;;;;;;;;;;3.50;99.90;;;;;;5021648;28;19971;-89
2022/01/04 11:03:07;;;;;;;;;;;3.50;99.90;;;;;;5021597;28;19936;-88
2022/01/04 11:05:38;;;;;;;;;;;4.10;99.90;;;;;;5025324;28;19988;-87
2022/01/04 11:08:07;;;;;;;;;;;3.60;99.90;;;;;;5024875;28;20034;-88
2022/01/04 11:10:35;;;;;;;;;;;4.20;99.90;;;;;;5026246;28;19986;-87
2022/01/04 11:13:02;;;;;;;;;;;4.00;99.90;;;;;;5010742;28;19929;-90
2022/01/04 11:15:33;;;;;;;;;;;3.90;99.90;;;;;;5022836;28;19929;-88
2022/01/04 11:18:00;;;;;;;;;;;3.80;99.90;;;;;;5020363;28;19924;-89
2022/01/04 11:20:29;;;;;;;;;;;3.80;99.90;;;;;;5021826;28;19928;-89
2022/01/04 11:22:57;;;;;;;;;;;3.90;99.90;;;;;;5020900;28;19929;-89
2022/01/04 11:25:25;;;;;;;;;;;3.70;99.90;;;;;;5018025;28;20384;-87
2022/01/04 11:27:54;;;;;;;;;;;4.00;99.90;;;;;;5009386;28;19925;-87
2022/01/04 11:30:26;;;;;;;;;;;4.10;99.90;;;;;;5014200;28;20286;-89
2022/01/04 11:33:06;;;;;;;;;;;4.70;99.90;;;;;;5024095;28;19944;-90
2022/01/04 11:35:34;;;;;;;;;;;4.40;99.90;;;;;;5022278;28;19968;-87
2022/01/04 11:38:01;;;;;;;;;;;4.20;99.90;;;;;;5005953;28;20035;-88
2022/01/04 11:40:31;;;;;;;;;;;4.40;99.90;;;;;;5023154;28;19929;-88
2022/01/04 11:42:58;;;;;;;;;;;4.50;99.90;;;;;;5022102;28;20020;-88
2022/01/04 11:45:41;;;;;;;;;;;4.50;99.90;;;;;;5020992;28;19979;-90
2022/01/04 11:48:30;;;;;;;;;;;4.50;99.90;;;;;;5014342;28;20028;-88
2022/01/04 11:51:06;;;;;;;;;;;4.60;99.90;;;;;;5016161;28;19957;-90
2022/01/04 11:53:34;;;;;;;;;;;4.60;99.90;;;;;;5019677;28;19938;-89
2022/01/04 11:56:03;;;;;;;;;;;4.70;99.90;;;;;;5021181;28;19952;-89
2022/01/04 11:58:45;;;;;;;;;;;5.30;99.90;;;;;;5020027;28;19929;-88
2022/01/04 12:01:14;;;;;;;;;;;4.70;99.90;;;;;;5018683;28;19967;-87
2022/01/04 12:03:44;;;;;;;;;;;4.80;99.90;;;;;;5021120;28;19933;-86
2022/01/04 12:06:14;;;;;;;;;;;4.80;99.90;;;;;;5027513;28;20253;-88
2022/01/04 12:08:46;;;;;;;;;;;3.30;99.90;;;;;;5029115;28;19928;-88
2022/01/04 12:11:20;;;;;;;;;;;4.80;99.90;;;;;;5031895;28;19929;-89
2022/01/04 12:13:48;;;;;;;;;;;4.70;99.90;;;;;;5022250;28;19921;-87
2022/01/04 12:16:15;;;;;;;;;;;4.70;99.90;;;;;;5025650;28;19929;-90
2022/01/04 12:19:00;;;;;;;;;;;4.80;99.90;;;;;;5023740;28;19932;-87
2022/01/04 12:21:36;;;;;;;;;;;5.10;99.90;;;;;;5025553;28;20020;-88
2022/01/04 12:24:04;;;;;;;;;;;4.80;99.90;;;;;;5026521;28;19936;-88
2022/01/04 12:26:32;;;;;;;;;;;5.10;99.90;;;;;;5026426;28;19929;-87
2022/01/04 12:29:22;;;;;;;;;;;5.30;99.90;;;;;;5001068;28;20463;-87
2022/01/04 12:31:49;;;;;;;;;;;4.00;99.90;;;;;;5006823;28;21271;-88
2022/01/04 12:34:27;;;;;;;;;;;5.30;99.90;;;;;;5021096;28;19921;-86
2022/01/04 12:36:58;;;;;;;;;;;5.20;99.90;;;;;;5021883;28;19936;-88
2022/01/04 12:39:31;;;;;;;;;;;5.20;99.90;;;;;;5022865;28;20011;-87
2022/01/04 12:42:01;;;;;;;;;;;5.20;99.90;;;;;;5025285;28;19983;-89
2022/01/04 12:44:29;;;;;;;;;;;5.40;99.90;;;;;;5025901;28;19927;-87
2022/01/04 12:46:57;;;;;;;;;;;5.10;99.90;;;;;;5025827;28;19975;-89
2022/01/04 12:49:25;;;;;;;;;;;5.10;99.90;;;;;;5026472;28;19921;-87
2022/01/04 12:51:54;;;;;;;;;;;5.00;99.90;;;;;;5020846;28;20283;-89
2022/01/04 12:54:23;;;;;;;;;;;5.00;99.90;;;;;;5020173;28;19931;-88
2022/01/04 12:56:51;;;;;;;;;;;5.20;99.90;;;;;;5024633;28;19933;-91
2022/01/04 12:59:37;;;;;;;;;;;6.10;99.90;;;;;;5021813;28;19987;-89
2022/01/04 13:02:09;;;;;;;;;;;5.00;99.90;;;;;;5031979;28;19921;-90
2022/01/04 13:04:45;;;;;;;;;;;5.10;99.90;;;;;;5029472;28;19931;-90
2022/01/04 13:07:45;;;;;;;;;;;5.20;99.90;;;;;;5027610;28;19972;-88
2022/01/04 13:10:23;;;;;;;;;;;4.90;99.90;;;;;;4916900;29;19970;-87
2022/01/04 13:13:12;;;;;;;;;;;4.90;99.90;;;;;;4921497;29;19922;-91
2022/01/04 13:15:39;;;;;;;;;;;6.10;99.90;;;;;;5000879;28;19931;-88
2022/01/04 13:18:07;;;;;;;;;;;4.90;99.90;;;;;;5020487;28;20087;-90
2022/01/04 13:20:35;;;;;;;;;;;5.10;99.90;;;;;;5023957;28;19927;-87
2022/01/04 13:23:06;;;;;;;;;;;5.40;99.90;;;;;;5025359;28;19975;-86
2022/01/04 13:25:37;;;;;;;;;;;5.30;99.90;;;;;;5022963;28;20277;-90
2022/01/04 13:28:05;;;;;;;;;;;5.30;99.90;;;;;;5019106;28;19930;-87
2022/01/04 13:30:32;;;;;;;;;;;5.60;99.90;;;;;;5023895;28;19935;-89
2022/01/04 13:33:00;;;;;;;;;;;5.20;99.90;;;;;;5020243;28;19928;-88
2022/01/04 13:35:28;;;;;;;;;;;5.60;99.90;;;;;;5021816;28;19975;-86
2022/01/04 13:37:56;;;;;;;;;;;5.10;99.90;;;;;;5021775;28;20425;-86
2022/01/04 13:40:24;;;;;;;;;;;5.20;99.90;;;;;;5020858;28;19921;-85
2022/01/04 13:43:01;;;;;;;;;;;5.20;99.90;;;;;;5029109;28;20402;-88
2022/01/04 13:45:28;;;;;;;;;;;5.50;99.90;;;;;;5028040;28;19940;-88
2022/01/04 13:47:58;;;;;;;;;;;5.30;99.90;;;;;;5022375;28;19975;-88
2022/01/04 13:50:26;;;;;;;;;;;5.10;99.90;;;;;;5026570;28;19929;-86
2022/01/04 13:53:12;;;;;;;;;;;5.10;99.90;;;;;;5022691;28;20304;-87
2022/01/04 13:55:54;;;;;;;;;;;5.20;99.90;;;;;;5024791;28;20414;-88
2022/01/04 13:58:36;;;;;;;;;;;5.10;99.90;;;;;;4966694;28;19983;-88
2022/01/04 14:01:22;;;;;;;;;;;5.10;99.90;;;;;;4945849;28;19929;-88
2022/01/04 14:03:50;;;;;;;;;;;5.10;99.90;;;;;;4937340;28;21301;-89
2022/01/04 14:06:38;;;;;;;;;;;3.60;99.90;;;;;;4939543;28;19937;-86
2022/01/04 14:09:08;;;;;;;;;;;5.00;99.90;;;;;;4980638;28;19929;-87
2022/01/04 14:11:37;;;;;;;;;;;5.60;99.90;;;;;;5001379;28;19916;-87
2022/01/04 14:14:10;;;;;;;;;;;5.10;99.90;;;;;;5008686;28;20342;-86
2022/01/04 14:16:45;;;;;;;;;;;5.40;99.90;;;;;;5032532;28;19921;-87
2022/01/04 14:19:13;;;;;;;;;;;5.10;99.90;;;;;;5024060;28;19929;-87
2022/01/04 14:21:42;;;;;;;;;;;5.50;99.90;;;;;;5016516;28;20264;-87
2022/01/04 14:24:27;;;;;;;;;;;4.70;99.90;;;;;;5021908;28;19987;-87
2022/01/04 14:26:54;;;;;;;;;;;4.70;99.90;;;;;;5023332;28;19925;-87
2022/01/04 14:29:29;;;;;;;;;;;6.20;99.90;;;;;;5023573;28;19944;-87
2022/01/04 14:31:57;;;;;;;;;;;5.10;99.90;;;;;;5026222;28;20012;-87
2022/01/04 14:34:24;;;;;;;;;;;5.40;99.90;;;;;;5015643;28;19948;-87
2022/01/04 14:36:51;;;;;;;;;;;5.40;99.90;;;;;;4963991;28;20800;-89
2022/01/04 14:39:18;;;;;;;;;;;5.10;99.90;;;;;;4948665;28;19929;-88
2022/01/04 14:41:47;;;;;;;;;;;5.40;99.90;;;;;;4940706;28;19921;-88
2022/01/04 14:44:13;;;;;;;;;;;5.10;99.90;;;;;;4942761;28;21138;-88
2022/01/04 14:46:42;;;;;;;;;;;5.50;99.90;;;;;;4935346;28;19928;-88
2022/01/04 14:49:10;;;;;;;;;;;3.30;99.90;;;;;;4944906;28;19952;-88
2022/01/04 14:51:54;;;;;;;;;;;4.40;99.90;;;;;;4946063;28;19929;-87
2022/01/04 14:54:22;;;;;;;;;;;5.00;99.90;;;;;;4960159;28;20375;-86
2022/01/04 14:56:50;;;;;;;;;;;5.10;99.90;;;;;;4961560;28;19943;-87